<?xml version="1.0" encoding="UTF-8" standalone="no" ?>
<gpx xmlns="http://www.topografix.com/GPX/1/1" xmlns:xsi="http://www.w3.org/2001/XMLSchema-instance" xsi:schemaLocation="http://www.topografix.com/GPX/1/1 http://www.topografix.com/GPX/1/1/gpx.xsd" version="1.1" creator="VisuGPX - https://www.visugpx.com">
  <metadata>
    <name>LeGuedeniau_BoisVallees_17km</name>
    <desc><![CDATA[gnerando idor:7349116_7487996]]></desc>
  </metadata>
  <trk>
    <name><![CDATA[LeGuedeniau_BoisVallees_17.5km-7487996]]></name>
    <extensions>
      <line xmlns="http://www.topografix.com/GPX/gpx_style/0/2">
        <color>0000FF</color>
        <width>4</width>
      </line>
    </extensions>
    <trkseg>
      <trkpt lat="47.49407" lon="-0.04638">
        <ele>60</ele>
        <time>2023-11-04T16:56:15Z</time>
      </trkpt>
      <trkpt lat="47.49426" lon="-0.04643">
        <ele>61</ele>
        <time>2023-11-04T16:56:41Z</time>
      </trkpt>
      <trkpt lat="47.49443" lon="-0.04652">
        <ele>61</ele>
        <time>2023-11-04T16:57:05Z</time>
      </trkpt>
      <trkpt lat="47.49457" lon="-0.04671">
        <ele>61</ele>
        <time>2023-11-04T16:57:30Z</time>
      </trkpt>
      <trkpt lat="47.49474" lon="-0.04685">
        <ele>62</ele>
        <time>2023-11-04T16:57:56Z</time>
      </trkpt>
      <trkpt lat="47.49483" lon="-0.04709">
        <ele>62</ele>
        <time>2023-11-04T16:58:21Z</time>
      </trkpt>
      <trkpt lat="47.49473" lon="-0.04731">
        <ele>62</ele>
        <time>2023-11-04T16:58:45Z</time>
      </trkpt>
      <trkpt lat="47.49469" lon="-0.04759">
        <ele>62</ele>
        <time>2023-11-04T16:59:11Z</time>
      </trkpt>
      <trkpt lat="47.49432" lon="-0.04885">
        <ele>62</ele>
        <time>2023-11-04T17:01:14Z</time>
      </trkpt>
      <trkpt lat="47.4942" lon="-0.04936">
        <ele>61</ele>
        <time>2023-11-04T17:02:03Z</time>
      </trkpt>
      <trkpt lat="47.49416" lon="-0.04963">
        <ele>61</ele>
        <time>2023-11-04T17:02:28Z</time>
      </trkpt>
      <trkpt lat="47.49396" lon="-0.0501">
        <ele>60</ele>
        <time>2023-11-04T17:03:18Z</time>
      </trkpt>
      <trkpt lat="47.49373" lon="-0.05085">
        <ele>60</ele>
        <time>2023-11-04T17:04:32Z</time>
      </trkpt>
      <trkpt lat="47.49372" lon="-0.05139">
        <ele>59</ele>
        <time>2023-11-04T17:05:21Z</time>
      </trkpt>
      <trkpt lat="47.49374" lon="-0.05167">
        <ele>59</ele>
        <time>2023-11-04T17:05:47Z</time>
      </trkpt>
      <trkpt lat="47.49382" lon="-0.05222">
        <ele>59</ele>
        <time>2023-11-04T17:06:37Z</time>
      </trkpt>
      <trkpt lat="47.49389" lon="-0.05248">
        <ele>59</ele>
        <time>2023-11-04T17:07:03Z</time>
      </trkpt>
      <trkpt lat="47.49395" lon="-0.05301">
        <ele>60</ele>
        <time>2023-11-04T17:07:51Z</time>
      </trkpt>
      <trkpt lat="47.49409" lon="-0.05354">
        <ele>61</ele>
        <time>2023-11-04T17:08:42Z</time>
      </trkpt>
      <trkpt lat="47.49412" lon="-0.05381">
        <ele>61</ele>
        <time>2023-11-04T17:09:07Z</time>
      </trkpt>
      <trkpt lat="47.4942" lon="-0.05406">
        <ele>61</ele>
        <time>2023-11-04T17:09:32Z</time>
      </trkpt>
      <trkpt lat="47.49424" lon="-0.05432">
        <ele>62</ele>
        <time>2023-11-04T17:09:56Z</time>
      </trkpt>
      <trkpt lat="47.49435" lon="-0.05455">
        <ele>62</ele>
        <time>2023-11-04T17:10:21Z</time>
      </trkpt>
      <trkpt lat="47.49445" lon="-0.05509">
        <ele>63</ele>
        <time>2023-11-04T17:11:12Z</time>
      </trkpt>
      <trkpt lat="47.49454" lon="-0.05536">
        <ele>62</ele>
        <time>2023-11-04T17:11:39Z</time>
      </trkpt>
      <trkpt lat="47.49488" lon="-0.05602">
        <ele>62</ele>
        <time>2023-11-04T17:12:54Z</time>
      </trkpt>
      <trkpt lat="47.49498" lon="-0.05656">
        <ele>62</ele>
        <time>2023-11-04T17:13:44Z</time>
      </trkpt>
      <trkpt lat="47.49508" lon="-0.05678">
        <ele>62</ele>
        <time>2023-11-04T17:14:08Z</time>
      </trkpt>
      <trkpt lat="47.49531" lon="-0.05755">
        <ele>63</ele>
        <time>2023-11-04T17:15:24Z</time>
      </trkpt>
      <trkpt lat="47.49541" lon="-0.05809">
        <ele>63</ele>
        <time>2023-11-04T17:16:15Z</time>
      </trkpt>
      <trkpt lat="47.49545" lon="-0.05863">
        <ele>63</ele>
        <time>2023-11-04T17:17:04Z</time>
      </trkpt>
      <trkpt lat="47.49554" lon="-0.05889">
        <ele>65</ele>
        <time>2023-11-04T17:17:30Z</time>
      </trkpt>
      <trkpt lat="47.49561" lon="-0.05973">
        <ele>65</ele>
        <time>2023-11-04T17:18:46Z</time>
      </trkpt>
      <trkpt lat="47.49567" lon="-0.05999">
        <ele>65</ele>
        <time>2023-11-04T17:19:11Z</time>
      </trkpt>
      <trkpt lat="47.4959" lon="-0.06045">
        <ele>65</ele>
        <time>2023-11-04T17:20:03Z</time>
      </trkpt>
      <trkpt lat="47.49618" lon="-0.06083">
        <ele>65</ele>
        <time>2023-11-04T17:20:53Z</time>
      </trkpt>
      <trkpt lat="47.49662" lon="-0.06136">
        <ele>63</ele>
        <time>2023-11-04T17:22:09Z</time>
      </trkpt>
      <trkpt lat="47.49709" lon="-0.06182">
        <ele>62</ele>
        <time>2023-11-04T17:23:24Z</time>
      </trkpt>
      <trkpt lat="47.4976" lon="-0.06218">
        <ele>61</ele>
        <time>2023-11-04T17:24:40Z</time>
      </trkpt>
      <trkpt lat="47.49804" lon="-0.06267">
        <ele>61</ele>
        <time>2023-11-04T17:25:53Z</time>
      </trkpt>
      <trkpt lat="47.4989" lon="-0.06413">
        <ele>62</ele>
        <time>2023-11-04T17:28:48Z</time>
      </trkpt>
      <trkpt lat="47.49908" lon="-0.06419">
        <ele>63</ele>
        <time>2023-11-04T17:29:12Z</time>
      </trkpt>
      <trkpt lat="47.4992" lon="-0.06399">
        <ele>63</ele>
        <time>2023-11-04T17:29:36Z</time>
      </trkpt>
      <trkpt lat="47.49951" lon="-0.06366">
        <ele>65</ele>
        <time>2023-11-04T17:30:27Z</time>
      </trkpt>
      <trkpt lat="47.49976" lon="-0.06324">
        <ele>67</ele>
        <time>2023-11-04T17:31:18Z</time>
      </trkpt>
      <trkpt lat="47.49965" lon="-0.06303">
        <ele>66</ele>
        <time>2023-11-04T17:31:42Z</time>
      </trkpt>
      <trkpt lat="47.49959" lon="-0.06277">
        <ele>66</ele>
        <time>2023-11-04T17:32:07Z</time>
      </trkpt>
      <trkpt lat="47.49956" lon="-0.06222">
        <ele>66</ele>
        <time>2023-11-04T17:32:56Z</time>
      </trkpt>
      <trkpt lat="47.49949" lon="-0.06196">
        <ele>66</ele>
        <time>2023-11-04T17:33:22Z</time>
      </trkpt>
      <trkpt lat="47.49893" lon="-0.06023">
        <ele>66</ele>
        <time>2023-11-04T17:36:14Z</time>
      </trkpt>
      <trkpt lat="47.49893" lon="-0.05997">
        <ele>67</ele>
        <time>2023-11-04T17:36:38Z</time>
      </trkpt>
      <trkpt lat="47.49882" lon="-0.05975">
        <ele>67</ele>
        <time>2023-11-04T17:37:03Z</time>
      </trkpt>
      <trkpt lat="47.49862" lon="-0.05866">
        <ele>69</ele>
        <time>2023-11-04T17:38:44Z</time>
      </trkpt>
      <trkpt lat="47.49857" lon="-0.05783">
        <ele>71</ele>
        <time>2023-11-04T17:40:00Z</time>
      </trkpt>
      <trkpt lat="47.49859" lon="-0.05755">
        <ele>72</ele>
        <time>2023-11-04T17:40:25Z</time>
      </trkpt>
      <trkpt lat="47.4986" lon="-0.05454">
        <ele>75</ele>
        <time>2023-11-04T17:44:56Z</time>
      </trkpt>
      <trkpt lat="47.49863" lon="-0.05371">
        <ele>75</ele>
        <time>2023-11-04T17:46:11Z</time>
      </trkpt>
      <trkpt lat="47.49881" lon="-0.05362">
        <ele>75</ele>
        <time>2023-11-04T17:46:37Z</time>
      </trkpt>
      <trkpt lat="47.49974" lon="-0.05367">
        <ele>75</ele>
        <time>2023-11-04T17:48:41Z</time>
      </trkpt>
      <trkpt lat="47.50048" lon="-0.05367">
        <ele>76</ele>
        <time>2023-11-04T17:50:20Z</time>
      </trkpt>
      <trkpt lat="47.50103" lon="-0.05355">
        <ele>77</ele>
        <time>2023-11-04T17:51:34Z</time>
      </trkpt>
      <trkpt lat="47.50122" lon="-0.05349">
        <ele>77</ele>
        <time>2023-11-04T17:52:00Z</time>
      </trkpt>
      <trkpt lat="47.5014" lon="-0.0534">
        <ele>78</ele>
        <time>2023-11-04T17:52:25Z</time>
      </trkpt>
      <trkpt lat="47.50151" lon="-0.05319">
        <ele>78</ele>
        <time>2023-11-04T17:52:49Z</time>
      </trkpt>
      <trkpt lat="47.50166" lon="-0.05213">
        <ele>78</ele>
        <time>2023-11-04T17:54:27Z</time>
      </trkpt>
      <trkpt lat="47.50172" lon="-0.05187">
        <ele>77</ele>
        <time>2023-11-04T17:54:51Z</time>
      </trkpt>
      <trkpt lat="47.50161" lon="-0.05164">
        <ele>77</ele>
        <time>2023-11-04T17:55:17Z</time>
      </trkpt>
      <trkpt lat="47.50116" lon="-0.05114">
        <ele>76</ele>
        <time>2023-11-04T17:56:32Z</time>
      </trkpt>
      <trkpt lat="47.50084" lon="-0.05084">
        <ele>76</ele>
        <time>2023-11-04T17:57:22Z</time>
      </trkpt>
      <trkpt lat="47.50035" lon="-0.05044">
        <ele>77</ele>
        <time>2023-11-04T17:58:37Z</time>
      </trkpt>
      <trkpt lat="47.50029" lon="-0.05018">
        <ele>77</ele>
        <time>2023-11-04T17:59:02Z</time>
      </trkpt>
      <trkpt lat="47.50047" lon="-0.04971">
        <ele>76</ele>
        <time>2023-11-04T17:59:51Z</time>
      </trkpt>
      <trkpt lat="47.50068" lon="-0.04926">
        <ele>75</ele>
        <time>2023-11-04T18:00:40Z</time>
      </trkpt>
      <trkpt lat="47.50106" lon="-0.04865">
        <ele>73</ele>
        <time>2023-11-04T18:01:55Z</time>
      </trkpt>
      <trkpt lat="47.50125" lon="-0.04861">
        <ele>73</ele>
        <time>2023-11-04T18:02:20Z</time>
      </trkpt>
      <trkpt lat="47.50174" lon="-0.04901">
        <ele>73</ele>
        <time>2023-11-04T18:03:35Z</time>
      </trkpt>
      <trkpt lat="47.50192" lon="-0.04906">
        <ele>73</ele>
        <time>2023-11-04T18:03:59Z</time>
      </trkpt>
      <trkpt lat="47.5021" lon="-0.04899">
        <ele>73</ele>
        <time>2023-11-04T18:04:24Z</time>
      </trkpt>
      <trkpt lat="47.5022" lon="-0.04877">
        <ele>73</ele>
        <time>2023-11-04T18:04:48Z</time>
      </trkpt>
      <trkpt lat="47.50228" lon="-0.04851">
        <ele>72</ele>
        <time>2023-11-04T18:05:14Z</time>
      </trkpt>
      <trkpt lat="47.50242" lon="-0.04832">
        <ele>72</ele>
        <time>2023-11-04T18:05:39Z</time>
      </trkpt>
      <trkpt lat="47.50278" lon="-0.0482">
        <ele>72</ele>
        <time>2023-11-04T18:06:29Z</time>
      </trkpt>
      <trkpt lat="47.50273" lon="-0.04793">
        <ele>72</ele>
        <time>2023-11-04T18:06:54Z</time>
      </trkpt>
      <trkpt lat="47.50257" lon="-0.04744">
        <ele>72</ele>
        <time>2023-11-04T18:07:43Z</time>
      </trkpt>
      <trkpt lat="47.50247" lon="-0.04693">
        <ele>73</ele>
        <time>2023-11-04T18:08:31Z</time>
      </trkpt>
      <trkpt lat="47.50244" lon="-0.04665">
        <ele>73</ele>
        <time>2023-11-04T18:08:56Z</time>
      </trkpt>
      <trkpt lat="47.50208" lon="-0.04567">
        <ele>76</ele>
        <time>2023-11-04T18:10:37Z</time>
      </trkpt>
      <trkpt lat="47.50193" lon="-0.04517">
        <ele>76</ele>
        <time>2023-11-04T18:11:26Z</time>
      </trkpt>
      <trkpt lat="47.50158" lon="-0.04333">
        <ele>77</ele>
        <time>2023-11-04T18:14:18Z</time>
      </trkpt>
      <trkpt lat="47.50169" lon="-0.04311">
        <ele>78</ele>
        <time>2023-11-04T18:14:43Z</time>
      </trkpt>
      <trkpt lat="47.50205" lon="-0.04295">
        <ele>81</ele>
        <time>2023-11-04T18:15:33Z</time>
      </trkpt>
      <trkpt lat="47.5024" lon="-0.04274">
        <ele>84</ele>
        <time>2023-11-04T18:16:24Z</time>
      </trkpt>
      <trkpt lat="47.50259" lon="-0.0427">
        <ele>84</ele>
        <time>2023-11-04T18:16:49Z</time>
      </trkpt>
      <trkpt lat="47.50276" lon="-0.04262">
        <ele>85</ele>
        <time>2023-11-04T18:17:13Z</time>
      </trkpt>
      <trkpt lat="47.50313" lon="-0.04252">
        <ele>86</ele>
        <time>2023-11-04T18:18:03Z</time>
      </trkpt>
      <trkpt lat="47.5033" lon="-0.04246">
        <ele>86</ele>
        <time>2023-11-04T18:18:27Z</time>
      </trkpt>
      <trkpt lat="47.50347" lon="-0.04236">
        <ele>86</ele>
        <time>2023-11-04T18:18:51Z</time>
      </trkpt>
      <trkpt lat="47.50365" lon="-0.04232">
        <ele>87</ele>
        <time>2023-11-04T18:19:15Z</time>
      </trkpt>
      <trkpt lat="47.50421" lon="-0.04212">
        <ele>87</ele>
        <time>2023-11-04T18:20:32Z</time>
      </trkpt>
      <trkpt lat="47.50457" lon="-0.04204">
        <ele>87</ele>
        <time>2023-11-04T18:21:21Z</time>
      </trkpt>
      <trkpt lat="47.50493" lon="-0.0419">
        <ele>86</ele>
        <time>2023-11-04T18:22:10Z</time>
      </trkpt>
      <trkpt lat="47.50512" lon="-0.04186">
        <ele>86</ele>
        <time>2023-11-04T18:22:36Z</time>
      </trkpt>
      <trkpt lat="47.50547" lon="-0.04171">
        <ele>86</ele>
        <time>2023-11-04T18:23:25Z</time>
      </trkpt>
      <trkpt lat="47.50566" lon="-0.04175">
        <ele>86</ele>
        <time>2023-11-04T18:23:50Z</time>
      </trkpt>
      <trkpt lat="47.50602" lon="-0.04166">
        <ele>86</ele>
        <time>2023-11-04T18:24:39Z</time>
      </trkpt>
      <trkpt lat="47.50619" lon="-0.04154">
        <ele>86</ele>
        <time>2023-11-04T18:25:04Z</time>
      </trkpt>
      <trkpt lat="47.50654" lon="-0.04137">
        <ele>85</ele>
        <time>2023-11-04T18:25:53Z</time>
      </trkpt>
      <trkpt lat="47.50709" lon="-0.04126">
        <ele>85</ele>
        <time>2023-11-04T18:27:07Z</time>
      </trkpt>
      <trkpt lat="47.50728" lon="-0.04119">
        <ele>85</ele>
        <time>2023-11-04T18:27:33Z</time>
      </trkpt>
      <trkpt lat="47.50746" lon="-0.04119">
        <ele>85</ele>
        <time>2023-11-04T18:27:58Z</time>
      </trkpt>
      <trkpt lat="47.50783" lon="-0.04108">
        <ele>85</ele>
        <time>2023-11-04T18:28:48Z</time>
      </trkpt>
      <trkpt lat="47.50785" lon="-0.04081">
        <ele>85</ele>
        <time>2023-11-04T18:29:12Z</time>
      </trkpt>
      <trkpt lat="47.50772" lon="-0.04061">
        <ele>85</ele>
        <time>2023-11-04T18:29:37Z</time>
      </trkpt>
      <trkpt lat="47.50739" lon="-0.03934">
        <ele>84</ele>
        <time>2023-11-04T18:31:40Z</time>
      </trkpt>
      <trkpt lat="47.50665" lon="-0.0371">
        <ele>78</ele>
        <time>2023-11-04T18:35:25Z</time>
      </trkpt>
      <trkpt lat="47.5067" lon="-0.03684">
        <ele>79</ele>
        <time>2023-11-04T18:35:49Z</time>
      </trkpt>
      <trkpt lat="47.50668" lon="-0.03657">
        <ele>79</ele>
        <time>2023-11-04T18:36:14Z</time>
      </trkpt>
      <trkpt lat="47.50652" lon="-0.03642">
        <ele>79</ele>
        <time>2023-11-04T18:36:39Z</time>
      </trkpt>
      <trkpt lat="47.506" lon="-0.03611">
        <ele>77</ele>
        <time>2023-11-04T18:37:54Z</time>
      </trkpt>
      <trkpt lat="47.50574" lon="-0.03573">
        <ele>78</ele>
        <time>2023-11-04T18:38:42Z</time>
      </trkpt>
      <trkpt lat="47.50539" lon="-0.03554">
        <ele>78</ele>
        <time>2023-11-04T18:39:32Z</time>
      </trkpt>
      <trkpt lat="47.50506" lon="-0.03528">
        <ele>78</ele>
        <time>2023-11-04T18:40:22Z</time>
      </trkpt>
      <trkpt lat="47.50489" lon="-0.03518">
        <ele>78</ele>
        <time>2023-11-04T18:40:47Z</time>
      </trkpt>
      <trkpt lat="47.50473" lon="-0.03502">
        <ele>78</ele>
        <time>2023-11-04T18:41:12Z</time>
      </trkpt>
      <trkpt lat="47.50463" lon="-0.03479">
        <ele>79</ele>
        <time>2023-11-04T18:41:37Z</time>
      </trkpt>
      <trkpt lat="47.5045" lon="-0.03459">
        <ele>79</ele>
        <time>2023-11-04T18:42:02Z</time>
      </trkpt>
      <trkpt lat="47.50432" lon="-0.03453">
        <ele>78</ele>
        <time>2023-11-04T18:42:27Z</time>
      </trkpt>
      <trkpt lat="47.50399" lon="-0.03427">
        <ele>76</ele>
        <time>2023-11-04T18:43:16Z</time>
      </trkpt>
      <trkpt lat="47.50353" lon="-0.0338">
        <ele>73</ele>
        <time>2023-11-04T18:44:31Z</time>
      </trkpt>
      <trkpt lat="47.50339" lon="-0.03361">
        <ele>73</ele>
        <time>2023-11-04T18:44:56Z</time>
      </trkpt>
      <trkpt lat="47.50323" lon="-0.03349">
        <ele>72</ele>
        <time>2023-11-04T18:45:20Z</time>
      </trkpt>
      <trkpt lat="47.50271" lon="-0.03322">
        <ele>72</ele>
        <time>2023-11-04T18:46:34Z</time>
      </trkpt>
      <trkpt lat="47.5022" lon="-0.03287">
        <ele>71</ele>
        <time>2023-11-04T18:47:49Z</time>
      </trkpt>
      <trkpt lat="47.50166" lon="-0.03268">
        <ele>67</ele>
        <time>2023-11-04T18:49:03Z</time>
      </trkpt>
      <trkpt lat="47.50148" lon="-0.03268">
        <ele>66</ele>
        <time>2023-11-04T18:49:27Z</time>
      </trkpt>
      <trkpt lat="47.50129" lon="-0.03264">
        <ele>66</ele>
        <time>2023-11-04T18:49:53Z</time>
      </trkpt>
      <trkpt lat="47.50111" lon="-0.03255">
        <ele>66</ele>
        <time>2023-11-04T18:50:18Z</time>
      </trkpt>
      <trkpt lat="47.50078" lon="-0.03227">
        <ele>65</ele>
        <time>2023-11-04T18:51:09Z</time>
      </trkpt>
      <trkpt lat="47.50031" lon="-0.03182">
        <ele>66</ele>
        <time>2023-11-04T18:52:23Z</time>
      </trkpt>
      <trkpt lat="47.50018" lon="-0.03164">
        <ele>67</ele>
        <time>2023-11-04T18:52:47Z</time>
      </trkpt>
      <trkpt lat="47.50001" lon="-0.03152">
        <ele>67</ele>
        <time>2023-11-04T18:53:12Z</time>
      </trkpt>
      <trkpt lat="47.49988" lon="-0.03131">
        <ele>68</ele>
        <time>2023-11-04T18:53:38Z</time>
      </trkpt>
      <trkpt lat="47.49989" lon="-0.03103">
        <ele>69</ele>
        <time>2023-11-04T18:54:03Z</time>
      </trkpt>
      <trkpt lat="47.49982" lon="-0.03078">
        <ele>70</ele>
        <time>2023-11-04T18:54:28Z</time>
      </trkpt>
      <trkpt lat="47.49968" lon="-0.03061">
        <ele>70</ele>
        <time>2023-11-04T18:54:52Z</time>
      </trkpt>
      <trkpt lat="47.49936" lon="-0.03034">
        <ele>71</ele>
        <time>2023-11-04T18:55:41Z</time>
      </trkpt>
      <trkpt lat="47.4992" lon="-0.03017">
        <ele>72</ele>
        <time>2023-11-04T18:56:07Z</time>
      </trkpt>
      <trkpt lat="47.49907" lon="-0.02998">
        <ele>72</ele>
        <time>2023-11-04T18:56:32Z</time>
      </trkpt>
      <trkpt lat="47.49889" lon="-0.02951">
        <ele>72</ele>
        <time>2023-11-04T18:57:20Z</time>
      </trkpt>
      <trkpt lat="47.49868" lon="-0.02845">
        <ele>72</ele>
        <time>2023-11-04T18:59:00Z</time>
      </trkpt>
      <trkpt lat="47.49837" lon="-0.02742">
        <ele>71</ele>
        <time>2023-11-04T19:00:42Z</time>
      </trkpt>
      <trkpt lat="47.49832" lon="-0.02716">
        <ele>71</ele>
        <time>2023-11-04T19:01:06Z</time>
      </trkpt>
      <trkpt lat="47.49729" lon="-0.02424">
        <ele>76</ele>
        <time>2023-11-04T19:06:03Z</time>
      </trkpt>
      <trkpt lat="47.49719" lon="-0.02372">
        <ele>76</ele>
        <time>2023-11-04T19:06:52Z</time>
      </trkpt>
      <trkpt lat="47.49714" lon="-0.02318">
        <ele>76</ele>
        <time>2023-11-04T19:07:41Z</time>
      </trkpt>
      <trkpt lat="47.49697" lon="-0.02327">
        <ele>76</ele>
        <time>2023-11-04T19:08:05Z</time>
      </trkpt>
      <trkpt lat="47.49681" lon="-0.02341">
        <ele>76</ele>
        <time>2023-11-04T19:08:30Z</time>
      </trkpt>
      <trkpt lat="47.49606" lon="-0.02421">
        <ele>77</ele>
        <time>2023-11-04T19:10:33Z</time>
      </trkpt>
      <trkpt lat="47.49594" lon="-0.02442">
        <ele>76</ele>
        <time>2023-11-04T19:10:58Z</time>
      </trkpt>
      <trkpt lat="47.49572" lon="-0.02519">
        <ele>76</ele>
        <time>2023-11-04T19:12:13Z</time>
      </trkpt>
      <trkpt lat="47.49563" lon="-0.02543">
        <ele>76</ele>
        <time>2023-11-04T19:12:38Z</time>
      </trkpt>
      <trkpt lat="47.4953" lon="-0.02608">
        <ele>77</ele>
        <time>2023-11-04T19:13:51Z</time>
      </trkpt>
      <trkpt lat="47.49509" lon="-0.02685">
        <ele>78</ele>
        <time>2023-11-04T19:15:06Z</time>
      </trkpt>
      <trkpt lat="47.49499" lon="-0.02709">
        <ele>80</ele>
        <time>2023-11-04T19:15:32Z</time>
      </trkpt>
      <trkpt lat="47.49486" lon="-0.0273">
        <ele>81</ele>
        <time>2023-11-04T19:15:57Z</time>
      </trkpt>
      <trkpt lat="47.49471" lon="-0.02746">
        <ele>82</ele>
        <time>2023-11-04T19:16:22Z</time>
      </trkpt>
      <trkpt lat="47.49447" lon="-0.02789">
        <ele>82</ele>
        <time>2023-11-04T19:17:12Z</time>
      </trkpt>
      <trkpt lat="47.49429" lon="-0.02795">
        <ele>81</ele>
        <time>2023-11-04T19:17:37Z</time>
      </trkpt>
      <trkpt lat="47.49407" lon="-0.02753">
        <ele>84</ele>
        <time>2023-11-04T19:18:25Z</time>
      </trkpt>
      <trkpt lat="47.49378" lon="-0.02718">
        <ele>88</ele>
        <time>2023-11-04T19:19:15Z</time>
      </trkpt>
      <trkpt lat="47.49358" lon="-0.02673">
        <ele>92</ele>
        <time>2023-11-04T19:20:03Z</time>
      </trkpt>
      <trkpt lat="47.49346" lon="-0.02653">
        <ele>94</ele>
        <time>2023-11-04T19:20:27Z</time>
      </trkpt>
      <trkpt lat="47.49331" lon="-0.02635">
        <ele>96</ele>
        <time>2023-11-04T19:20:53Z</time>
      </trkpt>
      <trkpt lat="47.493" lon="-0.02608">
        <ele>97</ele>
        <time>2023-11-04T19:21:41Z</time>
      </trkpt>
      <trkpt lat="47.49256" lon="-0.02558">
        <ele>99</ele>
        <time>2023-11-04T19:22:55Z</time>
      </trkpt>
      <trkpt lat="47.4923" lon="-0.02518">
        <ele>98</ele>
        <time>2023-11-04T19:23:45Z</time>
      </trkpt>
      <trkpt lat="47.49198" lon="-0.02452">
        <ele>96</ele>
        <time>2023-11-04T19:24:59Z</time>
      </trkpt>
      <trkpt lat="47.49186" lon="-0.02433">
        <ele>95</ele>
        <time>2023-11-04T19:25:22Z</time>
      </trkpt>
      <trkpt lat="47.49156" lon="-0.02364">
        <ele>96</ele>
        <time>2023-11-04T19:26:36Z</time>
      </trkpt>
      <trkpt lat="47.49142" lon="-0.02343">
        <ele>97</ele>
        <time>2023-11-04T19:27:03Z</time>
      </trkpt>
      <trkpt lat="47.49094" lon="-0.02226">
        <ele>100</ele>
        <time>2023-11-04T19:29:06Z</time>
      </trkpt>
      <trkpt lat="47.49062" lon="-0.02157">
        <ele>100</ele>
        <time>2023-11-04T19:30:21Z</time>
      </trkpt>
      <trkpt lat="47.49027" lon="-0.02095">
        <ele>101</ele>
        <time>2023-11-04T19:31:34Z</time>
      </trkpt>
      <trkpt lat="47.48985" lon="-0.02039">
        <ele>101</ele>
        <time>2023-11-04T19:32:50Z</time>
      </trkpt>
      <trkpt lat="47.48963" lon="-0.01996">
        <ele>101</ele>
        <time>2023-11-04T19:33:38Z</time>
      </trkpt>
      <trkpt lat="47.48956" lon="-0.01971">
        <ele>102</ele>
        <time>2023-11-04T19:34:03Z</time>
      </trkpt>
      <trkpt lat="47.48926" lon="-0.01902">
        <ele>103</ele>
        <time>2023-11-04T19:35:17Z</time>
      </trkpt>
      <trkpt lat="47.48906" lon="-0.01826">
        <ele>106</ele>
        <time>2023-11-04T19:36:30Z</time>
      </trkpt>
      <trkpt lat="47.48889" lon="-0.01775">
        <ele>107</ele>
        <time>2023-11-04T19:37:22Z</time>
      </trkpt>
      <trkpt lat="47.48832" lon="-0.01669">
        <ele>111</ele>
        <time>2023-11-04T19:39:24Z</time>
      </trkpt>
      <trkpt lat="47.48824" lon="-0.01645">
        <ele>111</ele>
        <time>2023-11-04T19:39:48Z</time>
      </trkpt>
      <trkpt lat="47.48801" lon="-0.016">
        <ele>112</ele>
        <time>2023-11-04T19:40:39Z</time>
      </trkpt>
      <trkpt lat="47.48772" lon="-0.0153">
        <ele>112</ele>
        <time>2023-11-04T19:41:53Z</time>
      </trkpt>
      <trkpt lat="47.48745" lon="-0.01492">
        <ele>112</ele>
        <time>2023-11-04T19:42:43Z</time>
      </trkpt>
      <trkpt lat="47.4873" lon="-0.01476">
        <ele>111</ele>
        <time>2023-11-04T19:43:07Z</time>
      </trkpt>
      <trkpt lat="47.48704" lon="-0.01437">
        <ele>111</ele>
        <time>2023-11-04T19:43:57Z</time>
      </trkpt>
      <trkpt lat="47.48675" lon="-0.01401">
        <ele>111</ele>
        <time>2023-11-04T19:44:47Z</time>
      </trkpt>
      <trkpt lat="47.4866" lon="-0.01387">
        <ele>111</ele>
        <time>2023-11-04T19:45:11Z</time>
      </trkpt>
      <trkpt lat="47.48654" lon="-0.01361">
        <ele>111</ele>
        <time>2023-11-04T19:45:36Z</time>
      </trkpt>
      <trkpt lat="47.48632" lon="-0.0136">
        <ele>110</ele>
        <time>2023-11-04T19:46:05Z</time>
      </trkpt>
      <trkpt lat="47.48608" lon="-0.01403">
        <ele>108</ele>
        <time>2023-11-04T19:46:55Z</time>
      </trkpt>
      <trkpt lat="47.48582" lon="-0.01443">
        <ele>107</ele>
        <time>2023-11-04T19:47:45Z</time>
      </trkpt>
      <trkpt lat="47.48572" lon="-0.01466">
        <ele>106</ele>
        <time>2023-11-04T19:48:10Z</time>
      </trkpt>
      <trkpt lat="47.48556" lon="-0.0148">
        <ele>105</ele>
        <time>2023-11-04T19:48:35Z</time>
      </trkpt>
      <trkpt lat="47.48537" lon="-0.01487">
        <ele>104</ele>
        <time>2023-11-04T19:49:01Z</time>
      </trkpt>
      <trkpt lat="47.48474" lon="-0.01544">
        <ele>103</ele>
        <time>2023-11-04T19:50:39Z</time>
      </trkpt>
      <trkpt lat="47.4846" lon="-0.01564">
        <ele>104</ele>
        <time>2023-11-04T19:51:05Z</time>
      </trkpt>
      <trkpt lat="47.48442" lon="-0.01571">
        <ele>103</ele>
        <time>2023-11-04T19:51:30Z</time>
      </trkpt>
      <trkpt lat="47.48425" lon="-0.01584">
        <ele>103</ele>
        <time>2023-11-04T19:51:56Z</time>
      </trkpt>
      <trkpt lat="47.48412" lon="-0.01603">
        <ele>104</ele>
        <time>2023-11-04T19:52:20Z</time>
      </trkpt>
      <trkpt lat="47.48396" lon="-0.01618">
        <ele>105</ele>
        <time>2023-11-04T19:52:45Z</time>
      </trkpt>
      <trkpt lat="47.48383" lon="-0.01639">
        <ele>106</ele>
        <time>2023-11-04T19:53:11Z</time>
      </trkpt>
      <trkpt lat="47.48366" lon="-0.01648">
        <ele>106</ele>
        <time>2023-11-04T19:53:35Z</time>
      </trkpt>
      <trkpt lat="47.48337" lon="-0.01683">
        <ele>108</ele>
        <time>2023-11-04T19:54:25Z</time>
      </trkpt>
      <trkpt lat="47.4832" lon="-0.01693">
        <ele>107</ele>
        <time>2023-11-04T19:54:50Z</time>
      </trkpt>
      <trkpt lat="47.48301" lon="-0.01698">
        <ele>105</ele>
        <time>2023-11-04T19:55:15Z</time>
      </trkpt>
      <trkpt lat="47.4829" lon="-0.01719">
        <ele>105</ele>
        <time>2023-11-04T19:55:39Z</time>
      </trkpt>
      <trkpt lat="47.48246" lon="-0.01768">
        <ele>103</ele>
        <time>2023-11-04T19:56:53Z</time>
      </trkpt>
      <trkpt lat="47.48212" lon="-0.01797">
        <ele>103</ele>
        <time>2023-11-04T19:57:45Z</time>
      </trkpt>
      <trkpt lat="47.48184" lon="-0.01833">
        <ele>103</ele>
        <time>2023-11-04T19:58:35Z</time>
      </trkpt>
      <trkpt lat="47.48121" lon="-0.01891">
        <ele>104</ele>
        <time>2023-11-04T20:00:14Z</time>
      </trkpt>
      <trkpt lat="47.48069" lon="-0.01921">
        <ele>103</ele>
        <time>2023-11-04T20:01:28Z</time>
      </trkpt>
      <trkpt lat="47.48037" lon="-0.0195">
        <ele>103</ele>
        <time>2023-11-04T20:02:18Z</time>
      </trkpt>
      <trkpt lat="47.4799" lon="-0.01997">
        <ele>102</ele>
        <time>2023-11-04T20:03:34Z</time>
      </trkpt>
      <trkpt lat="47.47977" lon="-0.02016">
        <ele>102</ele>
        <time>2023-11-04T20:03:58Z</time>
      </trkpt>
      <trkpt lat="47.47945" lon="-0.02045">
        <ele>102</ele>
        <time>2023-11-04T20:04:48Z</time>
      </trkpt>
      <trkpt lat="47.4787" lon="-0.02125">
        <ele>99</ele>
        <time>2023-11-04T20:06:52Z</time>
      </trkpt>
      <trkpt lat="47.47853" lon="-0.02139">
        <ele>98</ele>
        <time>2023-11-04T20:07:18Z</time>
      </trkpt>
      <trkpt lat="47.47826" lon="-0.02178">
        <ele>97</ele>
        <time>2023-11-04T20:08:08Z</time>
      </trkpt>
      <trkpt lat="47.47798" lon="-0.02212">
        <ele>97</ele>
        <time>2023-11-04T20:08:56Z</time>
      </trkpt>
      <trkpt lat="47.47781" lon="-0.02225">
        <ele>97</ele>
        <time>2023-11-04T20:09:22Z</time>
      </trkpt>
      <trkpt lat="47.47746" lon="-0.02246">
        <ele>96</ele>
        <time>2023-11-04T20:10:12Z</time>
      </trkpt>
      <trkpt lat="47.47732" lon="-0.02264">
        <ele>96</ele>
        <time>2023-11-04T20:10:37Z</time>
      </trkpt>
      <trkpt lat="47.47683" lon="-0.02307">
        <ele>96</ele>
        <time>2023-11-04T20:11:53Z</time>
      </trkpt>
      <trkpt lat="47.4767" lon="-0.02325">
        <ele>97</ele>
        <time>2023-11-04T20:12:17Z</time>
      </trkpt>
      <trkpt lat="47.47653" lon="-0.02338">
        <ele>97</ele>
        <time>2023-11-04T20:12:42Z</time>
      </trkpt>
      <trkpt lat="47.47624" lon="-0.02373">
        <ele>97</ele>
        <time>2023-11-04T20:13:32Z</time>
      </trkpt>
      <trkpt lat="47.47576" lon="-0.02411">
        <ele>96</ele>
        <time>2023-11-04T20:14:45Z</time>
      </trkpt>
      <trkpt lat="47.47586" lon="-0.02433">
        <ele>96</ele>
        <time>2023-11-04T20:15:09Z</time>
      </trkpt>
      <trkpt lat="47.47593" lon="-0.02458">
        <ele>96</ele>
        <time>2023-11-04T20:15:33Z</time>
      </trkpt>
      <trkpt lat="47.47604" lon="-0.0248">
        <ele>97</ele>
        <time>2023-11-04T20:15:58Z</time>
      </trkpt>
      <trkpt lat="47.4761" lon="-0.02506">
        <ele>97</ele>
        <time>2023-11-04T20:16:23Z</time>
      </trkpt>
      <trkpt lat="47.47628" lon="-0.02554">
        <ele>98</ele>
        <time>2023-11-04T20:17:12Z</time>
      </trkpt>
      <trkpt lat="47.4763" lon="-0.02582">
        <ele>97</ele>
        <time>2023-11-04T20:17:38Z</time>
      </trkpt>
      <trkpt lat="47.47635" lon="-0.02608">
        <ele>97</ele>
        <time>2023-11-04T20:18:02Z</time>
      </trkpt>
      <trkpt lat="47.47646" lon="-0.02631">
        <ele>97</ele>
        <time>2023-11-04T20:18:27Z</time>
      </trkpt>
      <trkpt lat="47.47652" lon="-0.02657">
        <ele>97</ele>
        <time>2023-11-04T20:18:52Z</time>
      </trkpt>
      <trkpt lat="47.47677" lon="-0.02697">
        <ele>96</ele>
        <time>2023-11-04T20:19:41Z</time>
      </trkpt>
      <trkpt lat="47.47688" lon="-0.02721">
        <ele>96</ele>
        <time>2023-11-04T20:20:08Z</time>
      </trkpt>
      <trkpt lat="47.47712" lon="-0.02763">
        <ele>96</ele>
        <time>2023-11-04T20:20:57Z</time>
      </trkpt>
      <trkpt lat="47.47728" lon="-0.02812">
        <ele>96</ele>
        <time>2023-11-04T20:21:46Z</time>
      </trkpt>
      <trkpt lat="47.47757" lon="-0.02844">
        <ele>97</ele>
        <time>2023-11-04T20:22:35Z</time>
      </trkpt>
      <trkpt lat="47.4777" lon="-0.02863">
        <ele>97</ele>
        <time>2023-11-04T20:22:59Z</time>
      </trkpt>
      <trkpt lat="47.47781" lon="-0.02885">
        <ele>97</ele>
        <time>2023-11-04T20:23:24Z</time>
      </trkpt>
      <trkpt lat="47.47786" lon="-0.02911">
        <ele>97</ele>
        <time>2023-11-04T20:23:48Z</time>
      </trkpt>
      <trkpt lat="47.47797" lon="-0.02934">
        <ele>97</ele>
        <time>2023-11-04T20:24:13Z</time>
      </trkpt>
      <trkpt lat="47.47812" lon="-0.02953">
        <ele>98</ele>
        <time>2023-11-04T20:24:40Z</time>
      </trkpt>
      <trkpt lat="47.4787" lon="-0.03066">
        <ele>103</ele>
        <time>2023-11-04T20:26:48Z</time>
      </trkpt>
      <trkpt lat="47.47884" lon="-0.03086">
        <ele>103</ele>
        <time>2023-11-04T20:27:14Z</time>
      </trkpt>
      <trkpt lat="47.47895" lon="-0.03107">
        <ele>103</ele>
        <time>2023-11-04T20:27:38Z</time>
      </trkpt>
      <trkpt lat="47.47909" lon="-0.03123">
        <ele>102</ele>
        <time>2023-11-04T20:28:01Z</time>
      </trkpt>
      <trkpt lat="47.47926" lon="-0.03138">
        <ele>102</ele>
        <time>2023-11-04T20:28:28Z</time>
      </trkpt>
      <trkpt lat="47.47944" lon="-0.03144">
        <ele>101</ele>
        <time>2023-11-04T20:28:52Z</time>
      </trkpt>
      <trkpt lat="47.47959" lon="-0.0316">
        <ele>100</ele>
        <time>2023-11-04T20:29:17Z</time>
      </trkpt>
      <trkpt lat="47.4801" lon="-0.03194">
        <ele>98</ele>
        <time>2023-11-04T20:30:32Z</time>
      </trkpt>
      <trkpt lat="47.48041" lon="-0.03224">
        <ele>98</ele>
        <time>2023-11-04T20:31:21Z</time>
      </trkpt>
      <trkpt lat="47.48041" lon="-0.03251">
        <ele>97</ele>
        <time>2023-11-04T20:31:45Z</time>
      </trkpt>
      <trkpt lat="47.48037" lon="-0.03278">
        <ele>96</ele>
        <time>2023-11-04T20:32:10Z</time>
      </trkpt>
      <trkpt lat="47.4803" lon="-0.03303">
        <ele>96</ele>
        <time>2023-11-04T20:32:35Z</time>
      </trkpt>
      <trkpt lat="47.48015" lon="-0.03383">
        <ele>96</ele>
        <time>2023-11-04T20:33:50Z</time>
      </trkpt>
      <trkpt lat="47.48005" lon="-0.03464">
        <ele>96</ele>
        <time>2023-11-04T20:35:04Z</time>
      </trkpt>
      <trkpt lat="47.48007" lon="-0.03491">
        <ele>96</ele>
        <time>2023-11-04T20:35:28Z</time>
      </trkpt>
      <trkpt lat="47.48006" lon="-0.03519">
        <ele>96</ele>
        <time>2023-11-04T20:35:54Z</time>
      </trkpt>
      <trkpt lat="47.48001" lon="-0.03545">
        <ele>97</ele>
        <time>2023-11-04T20:36:18Z</time>
      </trkpt>
      <trkpt lat="47.48003" lon="-0.03573">
        <ele>97</ele>
        <time>2023-11-04T20:36:43Z</time>
      </trkpt>
      <trkpt lat="47.47998" lon="-0.036">
        <ele>97</ele>
        <time>2023-11-04T20:37:09Z</time>
      </trkpt>
      <trkpt lat="47.47993" lon="-0.03682">
        <ele>98</ele>
        <time>2023-11-04T20:38:23Z</time>
      </trkpt>
      <trkpt lat="47.47993" lon="-0.03791">
        <ele>96</ele>
        <time>2023-11-04T20:40:01Z</time>
      </trkpt>
      <trkpt lat="47.47958" lon="-0.0389">
        <ele>97</ele>
        <time>2023-11-04T20:41:42Z</time>
      </trkpt>
      <trkpt lat="47.4794" lon="-0.03889">
        <ele>98</ele>
        <time>2023-11-04T20:42:06Z</time>
      </trkpt>
      <trkpt lat="47.47923" lon="-0.03879">
        <ele>99</ele>
        <time>2023-11-04T20:42:30Z</time>
      </trkpt>
      <trkpt lat="47.47907" lon="-0.03865">
        <ele>99</ele>
        <time>2023-11-04T20:42:55Z</time>
      </trkpt>
      <trkpt lat="47.47871" lon="-0.03849">
        <ele>99</ele>
        <time>2023-11-04T20:43:45Z</time>
      </trkpt>
      <trkpt lat="47.47839" lon="-0.03823">
        <ele>97</ele>
        <time>2023-11-04T20:44:34Z</time>
      </trkpt>
      <trkpt lat="47.47754" lon="-0.03767">
        <ele>95</ele>
        <time>2023-11-04T20:46:38Z</time>
      </trkpt>
      <trkpt lat="47.47724" lon="-0.03732">
        <ele>95</ele>
        <time>2023-11-04T20:47:29Z</time>
      </trkpt>
      <trkpt lat="47.47673" lon="-0.03698">
        <ele>94</ele>
        <time>2023-11-04T20:48:44Z</time>
      </trkpt>
      <trkpt lat="47.47658" lon="-0.03681">
        <ele>94</ele>
        <time>2023-11-04T20:49:09Z</time>
      </trkpt>
      <trkpt lat="47.47641" lon="-0.03671">
        <ele>94</ele>
        <time>2023-11-04T20:49:34Z</time>
      </trkpt>
      <trkpt lat="47.47609" lon="-0.03643">
        <ele>96</ele>
        <time>2023-11-04T20:50:23Z</time>
      </trkpt>
      <trkpt lat="47.47592" lon="-0.03631">
        <ele>96</ele>
        <time>2023-11-04T20:50:48Z</time>
      </trkpt>
      <trkpt lat="47.47557" lon="-0.03613">
        <ele>96</ele>
        <time>2023-11-04T20:51:38Z</time>
      </trkpt>
      <trkpt lat="47.47541" lon="-0.03599">
        <ele>96</ele>
        <time>2023-11-04T20:52:03Z</time>
      </trkpt>
      <trkpt lat="47.47528" lon="-0.03581">
        <ele>96</ele>
        <time>2023-11-04T20:52:26Z</time>
      </trkpt>
      <trkpt lat="47.47509" lon="-0.03579">
        <ele>95</ele>
        <time>2023-11-04T20:52:52Z</time>
      </trkpt>
      <trkpt lat="47.47474" lon="-0.03568">
        <ele>95</ele>
        <time>2023-11-04T20:53:39Z</time>
      </trkpt>
      <trkpt lat="47.47455" lon="-0.03569">
        <ele>95</ele>
        <time>2023-11-04T20:54:05Z</time>
      </trkpt>
      <trkpt lat="47.47417" lon="-0.03562">
        <ele>96</ele>
        <time>2023-11-04T20:54:56Z</time>
      </trkpt>
      <trkpt lat="47.47381" lon="-0.03549">
        <ele>96</ele>
        <time>2023-11-04T20:55:45Z</time>
      </trkpt>
      <trkpt lat="47.47364" lon="-0.0354">
        <ele>96</ele>
        <time>2023-11-04T20:56:09Z</time>
      </trkpt>
      <trkpt lat="47.47327" lon="-0.03528">
        <ele>96</ele>
        <time>2023-11-04T20:57:00Z</time>
      </trkpt>
      <trkpt lat="47.47289" lon="-0.03524">
        <ele>96</ele>
        <time>2023-11-04T20:57:51Z</time>
      </trkpt>
      <trkpt lat="47.47179" lon="-0.03488">
        <ele>92</ele>
        <time>2023-11-04T21:00:21Z</time>
      </trkpt>
      <trkpt lat="47.47161" lon="-0.03487">
        <ele>91</ele>
        <time>2023-11-04T21:00:45Z</time>
      </trkpt>
      <trkpt lat="47.47085" lon="-0.03499">
        <ele>87</ele>
        <time>2023-11-04T21:02:27Z</time>
      </trkpt>
      <trkpt lat="47.47029" lon="-0.03522">
        <ele>84</ele>
        <time>2023-11-04T21:03:45Z</time>
      </trkpt>
      <trkpt lat="47.46993" lon="-0.03527">
        <ele>82</ele>
        <time>2023-11-04T21:04:33Z</time>
      </trkpt>
      <trkpt lat="47.46968" lon="-0.03526">
        <ele>81</ele>
        <time>2023-11-04T21:05:06Z</time>
      </trkpt>
      <trkpt lat="47.46956" lon="-0.03547">
        <ele>81</ele>
        <time>2023-11-04T21:05:31Z</time>
      </trkpt>
      <trkpt lat="47.46951" lon="-0.036">
        <ele>82</ele>
        <time>2023-11-04T21:06:20Z</time>
      </trkpt>
      <trkpt lat="47.46939" lon="-0.03652">
        <ele>82</ele>
        <time>2023-11-04T21:07:09Z</time>
      </trkpt>
      <trkpt lat="47.46938" lon="-0.03707">
        <ele>82</ele>
        <time>2023-11-04T21:07:59Z</time>
      </trkpt>
      <trkpt lat="47.46934" lon="-0.03734">
        <ele>81</ele>
        <time>2023-11-04T21:08:24Z</time>
      </trkpt>
      <trkpt lat="47.4693" lon="-0.03844">
        <ele>81</ele>
        <time>2023-11-04T21:10:03Z</time>
      </trkpt>
      <trkpt lat="47.46925" lon="-0.0387">
        <ele>81</ele>
        <time>2023-11-04T21:10:27Z</time>
      </trkpt>
      <trkpt lat="47.46924" lon="-0.03898">
        <ele>81</ele>
        <time>2023-11-04T21:10:53Z</time>
      </trkpt>
      <trkpt lat="47.46912" lon="-0.04008">
        <ele>79</ele>
        <time>2023-11-04T21:12:33Z</time>
      </trkpt>
      <trkpt lat="47.4693" lon="-0.04003">
        <ele>80</ele>
        <time>2023-11-04T21:12:58Z</time>
      </trkpt>
      <trkpt lat="47.46947" lon="-0.03992">
        <ele>81</ele>
        <time>2023-11-04T21:13:22Z</time>
      </trkpt>
      <trkpt lat="47.46965" lon="-0.03988">
        <ele>82</ele>
        <time>2023-11-04T21:13:47Z</time>
      </trkpt>
      <trkpt lat="47.47003" lon="-0.03985">
        <ele>83</ele>
        <time>2023-11-04T21:14:37Z</time>
      </trkpt>
      <trkpt lat="47.47041" lon="-0.03987">
        <ele>85</ele>
        <time>2023-11-04T21:15:28Z</time>
      </trkpt>
      <trkpt lat="47.47078" lon="-0.03992">
        <ele>86</ele>
        <time>2023-11-04T21:16:18Z</time>
      </trkpt>
      <trkpt lat="47.47115" lon="-0.04004">
        <ele>87</ele>
        <time>2023-11-04T21:17:08Z</time>
      </trkpt>
      <trkpt lat="47.47133" lon="-0.04007">
        <ele>87</ele>
        <time>2023-11-04T21:17:33Z</time>
      </trkpt>
      <trkpt lat="47.47151" lon="-0.04006">
        <ele>88</ele>
        <time>2023-11-04T21:17:57Z</time>
      </trkpt>
      <trkpt lat="47.47169" lon="-0.04013">
        <ele>88</ele>
        <time>2023-11-04T21:18:21Z</time>
      </trkpt>
      <trkpt lat="47.47218" lon="-0.04053">
        <ele>89</ele>
        <time>2023-11-04T21:19:36Z</time>
      </trkpt>
      <trkpt lat="47.47262" lon="-0.04102">
        <ele>89</ele>
        <time>2023-11-04T21:20:50Z</time>
      </trkpt>
      <trkpt lat="47.4729" lon="-0.04138">
        <ele>90</ele>
        <time>2023-11-04T21:21:39Z</time>
      </trkpt>
      <trkpt lat="47.47304" lon="-0.04158">
        <ele>91</ele>
        <time>2023-11-04T21:22:05Z</time>
      </trkpt>
      <trkpt lat="47.47327" lon="-0.04202">
        <ele>91</ele>
        <time>2023-11-04T21:22:55Z</time>
      </trkpt>
      <trkpt lat="47.47355" lon="-0.04236">
        <ele>92</ele>
        <time>2023-11-04T21:23:44Z</time>
      </trkpt>
      <trkpt lat="47.47343" lon="-0.04256">
        <ele>91</ele>
        <time>2023-11-04T21:24:08Z</time>
      </trkpt>
      <trkpt lat="47.47353" lon="-0.04335">
        <ele>91</ele>
        <time>2023-11-04T21:25:20Z</time>
      </trkpt>
      <trkpt lat="47.4735" lon="-0.04362">
        <ele>91</ele>
        <time>2023-11-04T21:25:45Z</time>
      </trkpt>
      <trkpt lat="47.47352" lon="-0.04444">
        <ele>93</ele>
        <time>2023-11-04T21:26:59Z</time>
      </trkpt>
      <trkpt lat="47.47358" lon="-0.0447">
        <ele>95</ele>
        <time>2023-11-04T21:27:24Z</time>
      </trkpt>
      <trkpt lat="47.47367" lon="-0.04494">
        <ele>96</ele>
        <time>2023-11-04T21:27:48Z</time>
      </trkpt>
      <trkpt lat="47.47378" lon="-0.04515">
        <ele>96</ele>
        <time>2023-11-04T21:28:12Z</time>
      </trkpt>
      <trkpt lat="47.47406" lon="-0.04553">
        <ele>95</ele>
        <time>2023-11-04T21:29:03Z</time>
      </trkpt>
      <trkpt lat="47.47436" lon="-0.04584">
        <ele>94</ele>
        <time>2023-11-04T21:29:52Z</time>
      </trkpt>
      <trkpt lat="47.47452" lon="-0.04597">
        <ele>94</ele>
        <time>2023-11-04T21:30:16Z</time>
      </trkpt>
      <trkpt lat="47.47466" lon="-0.04616">
        <ele>94</ele>
        <time>2023-11-04T21:30:42Z</time>
      </trkpt>
      <trkpt lat="47.47483" lon="-0.04628">
        <ele>94</ele>
        <time>2023-11-04T21:31:07Z</time>
      </trkpt>
      <trkpt lat="47.47512" lon="-0.04661">
        <ele>95</ele>
        <time>2023-11-04T21:31:56Z</time>
      </trkpt>
      <trkpt lat="47.4753" lon="-0.04672">
        <ele>95</ele>
        <time>2023-11-04T21:32:22Z</time>
      </trkpt>
      <trkpt lat="47.47537" lon="-0.04698">
        <ele>95</ele>
        <time>2023-11-04T21:32:47Z</time>
      </trkpt>
      <trkpt lat="47.47577" lon="-0.04756">
        <ele>94</ele>
        <time>2023-11-04T21:34:02Z</time>
      </trkpt>
      <trkpt lat="47.47611" lon="-0.04791">
        <ele>92</ele>
        <time>2023-11-04T21:34:57Z</time>
      </trkpt>
      <trkpt lat="47.47623" lon="-0.0481">
        <ele>91</ele>
        <time>2023-11-04T21:35:20Z</time>
      </trkpt>
      <trkpt lat="47.47638" lon="-0.04828">
        <ele>90</ele>
        <time>2023-11-04T21:35:46Z</time>
      </trkpt>
      <trkpt lat="47.47626" lon="-0.04848">
        <ele>90</ele>
        <time>2023-11-04T21:36:10Z</time>
      </trkpt>
      <trkpt lat="47.47593" lon="-0.04873">
        <ele>93</ele>
        <time>2023-11-04T21:37:00Z</time>
      </trkpt>
      <trkpt lat="47.47589" lon="-0.049">
        <ele>93</ele>
        <time>2023-11-04T21:37:25Z</time>
      </trkpt>
      <trkpt lat="47.476" lon="-0.04925">
        <ele>92</ele>
        <time>2023-11-04T21:37:51Z</time>
      </trkpt>
      <trkpt lat="47.47617" lon="-0.04935">
        <ele>91</ele>
        <time>2023-11-04T21:38:16Z</time>
      </trkpt>
      <trkpt lat="47.47653" lon="-0.0495">
        <ele>90</ele>
        <time>2023-11-04T21:39:06Z</time>
      </trkpt>
      <trkpt lat="47.47669" lon="-0.04963">
        <ele>90</ele>
        <time>2023-11-04T21:39:30Z</time>
      </trkpt>
      <trkpt lat="47.47668" lon="-0.04991">
        <ele>91</ele>
        <time>2023-11-04T21:39:55Z</time>
      </trkpt>
      <trkpt lat="47.47648" lon="-0.05071">
        <ele>93</ele>
        <time>2023-11-04T21:41:12Z</time>
      </trkpt>
      <trkpt lat="47.47623" lon="-0.05143">
        <ele>93</ele>
        <time>2023-11-04T21:42:25Z</time>
      </trkpt>
      <trkpt lat="47.47622" lon="-0.0517">
        <ele>93</ele>
        <time>2023-11-04T21:42:50Z</time>
      </trkpt>
      <trkpt lat="47.47696" lon="-0.05171">
        <ele>92</ele>
        <time>2023-11-04T21:44:29Z</time>
      </trkpt>
      <trkpt lat="47.47715" lon="-0.05175">
        <ele>92</ele>
        <time>2023-11-04T21:44:54Z</time>
      </trkpt>
      <trkpt lat="47.47733" lon="-0.05172">
        <ele>93</ele>
        <time>2023-11-04T21:45:18Z</time>
      </trkpt>
      <trkpt lat="47.47786" lon="-0.05194">
        <ele>94</ele>
        <time>2023-11-04T21:46:32Z</time>
      </trkpt>
      <trkpt lat="47.47801" lon="-0.05179">
        <ele>95</ele>
        <time>2023-11-04T21:46:56Z</time>
      </trkpt>
      <trkpt lat="47.47807" lon="-0.05125">
        <ele>95</ele>
        <time>2023-11-04T21:47:45Z</time>
      </trkpt>
      <trkpt lat="47.47803" lon="-0.05098">
        <ele>95</ele>
        <time>2023-11-04T21:48:10Z</time>
      </trkpt>
      <trkpt lat="47.47809" lon="-0.05043">
        <ele>95</ele>
        <time>2023-11-04T21:49:00Z</time>
      </trkpt>
      <trkpt lat="47.47809" lon="-0.04987">
        <ele>95</ele>
        <time>2023-11-04T21:49:51Z</time>
      </trkpt>
      <trkpt lat="47.47805" lon="-0.04961">
        <ele>93</ele>
        <time>2023-11-04T21:50:15Z</time>
      </trkpt>
      <trkpt lat="47.47807" lon="-0.04905">
        <ele>91</ele>
        <time>2023-11-04T21:51:06Z</time>
      </trkpt>
      <trkpt lat="47.47809" lon="-0.04879">
        <ele>91</ele>
        <time>2023-11-04T21:51:29Z</time>
      </trkpt>
      <trkpt lat="47.47815" lon="-0.04853">
        <ele>91</ele>
        <time>2023-11-04T21:51:54Z</time>
      </trkpt>
      <trkpt lat="47.47845" lon="-0.04884">
        <ele>92</ele>
        <time>2023-11-04T21:52:43Z</time>
      </trkpt>
      <trkpt lat="47.47898" lon="-0.04959">
        <ele>94</ele>
        <time>2023-11-04T21:54:21Z</time>
      </trkpt>
      <trkpt lat="47.47903" lon="-0.04986">
        <ele>94</ele>
        <time>2023-11-04T21:54:46Z</time>
      </trkpt>
      <trkpt lat="47.47913" lon="-0.0501">
        <ele>94</ele>
        <time>2023-11-04T21:55:11Z</time>
      </trkpt>
      <trkpt lat="47.47928" lon="-0.05027">
        <ele>95</ele>
        <time>2023-11-04T21:55:37Z</time>
      </trkpt>
      <trkpt lat="47.47935" lon="-0.05053">
        <ele>95</ele>
        <time>2023-11-04T21:56:02Z</time>
      </trkpt>
      <trkpt lat="47.4796" lon="-0.05092">
        <ele>96</ele>
        <time>2023-11-04T21:56:50Z</time>
      </trkpt>
      <trkpt lat="47.47968" lon="-0.05117">
        <ele>96</ele>
        <time>2023-11-04T21:57:15Z</time>
      </trkpt>
      <trkpt lat="47.47989" lon="-0.05161">
        <ele>95</ele>
        <time>2023-11-04T21:58:04Z</time>
      </trkpt>
      <trkpt lat="47.48002" lon="-0.05181">
        <ele>95</ele>
        <time>2023-11-04T21:58:29Z</time>
      </trkpt>
      <trkpt lat="47.48022" lon="-0.05258">
        <ele>95</ele>
        <time>2023-11-04T21:59:43Z</time>
      </trkpt>
      <trkpt lat="47.48029" lon="-0.05315">
        <ele>96</ele>
        <time>2023-11-04T22:00:36Z</time>
      </trkpt>
      <trkpt lat="47.48042" lon="-0.05364">
        <ele>94</ele>
        <time>2023-11-04T22:01:23Z</time>
      </trkpt>
      <trkpt lat="47.48044" lon="-0.05392">
        <ele>94</ele>
        <time>2023-11-04T22:01:48Z</time>
      </trkpt>
      <trkpt lat="47.48053" lon="-0.05417">
        <ele>93</ele>
        <time>2023-11-04T22:02:14Z</time>
      </trkpt>
      <trkpt lat="47.48075" lon="-0.05461">
        <ele>88</ele>
        <time>2023-11-04T22:03:03Z</time>
      </trkpt>
      <trkpt lat="47.48083" lon="-0.05485">
        <ele>86</ele>
        <time>2023-11-04T22:03:27Z</time>
      </trkpt>
      <trkpt lat="47.48092" lon="-0.05539">
        <ele>82</ele>
        <time>2023-11-04T22:04:18Z</time>
      </trkpt>
      <trkpt lat="47.48111" lon="-0.05534">
        <ele>81</ele>
        <time>2023-11-04T22:04:43Z</time>
      </trkpt>
      <trkpt lat="47.48121" lon="-0.05511">
        <ele>82</ele>
        <time>2023-11-04T22:05:08Z</time>
      </trkpt>
      <trkpt lat="47.48127" lon="-0.05486">
        <ele>84</ele>
        <time>2023-11-04T22:05:32Z</time>
      </trkpt>
      <trkpt lat="47.48138" lon="-0.05464">
        <ele>84</ele>
        <time>2023-11-04T22:05:57Z</time>
      </trkpt>
      <trkpt lat="47.48154" lon="-0.05413">
        <ele>85</ele>
        <time>2023-11-04T22:06:47Z</time>
      </trkpt>
      <trkpt lat="47.48167" lon="-0.05332">
        <ele>85</ele>
        <time>2023-11-04T22:08:02Z</time>
      </trkpt>
      <trkpt lat="47.48184" lon="-0.05255">
        <ele>85</ele>
        <time>2023-11-04T22:09:15Z</time>
      </trkpt>
      <trkpt lat="47.48191" lon="-0.05201">
        <ele>85</ele>
        <time>2023-11-04T22:10:05Z</time>
      </trkpt>
      <trkpt lat="47.48206" lon="-0.05151">
        <ele>85</ele>
        <time>2023-11-04T22:10:54Z</time>
      </trkpt>
      <trkpt lat="47.48207" lon="-0.05125">
        <ele>85</ele>
        <time>2023-11-04T22:11:18Z</time>
      </trkpt>
      <trkpt lat="47.48231" lon="-0.05051">
        <ele>83</ele>
        <time>2023-11-04T22:12:32Z</time>
      </trkpt>
      <trkpt lat="47.48241" lon="-0.05029">
        <ele>81</ele>
        <time>2023-11-04T22:12:56Z</time>
      </trkpt>
      <trkpt lat="47.48248" lon="-0.05003">
        <ele>79</ele>
        <time>2023-11-04T22:13:21Z</time>
      </trkpt>
      <trkpt lat="47.4825" lon="-0.04976">
        <ele>78</ele>
        <time>2023-11-04T22:13:46Z</time>
      </trkpt>
      <trkpt lat="47.48267" lon="-0.04927">
        <ele>75</ele>
        <time>2023-11-04T22:14:35Z</time>
      </trkpt>
      <trkpt lat="47.48272" lon="-0.04901">
        <ele>74</ele>
        <time>2023-11-04T22:15:00Z</time>
      </trkpt>
      <trkpt lat="47.48281" lon="-0.04878">
        <ele>74</ele>
        <time>2023-11-04T22:15:24Z</time>
      </trkpt>
      <trkpt lat="47.48314" lon="-0.0481">
        <ele>74</ele>
        <time>2023-11-04T22:16:39Z</time>
      </trkpt>
      <trkpt lat="47.48347" lon="-0.04784">
        <ele>76</ele>
        <time>2023-11-04T22:17:29Z</time>
      </trkpt>
      <trkpt lat="47.48356" lon="-0.04761">
        <ele>77</ele>
        <time>2023-11-04T22:17:53Z</time>
      </trkpt>
      <trkpt lat="47.48434" lon="-0.04682">
        <ele>82</ele>
        <time>2023-11-04T22:19:59Z</time>
      </trkpt>
      <trkpt lat="47.48478" lon="-0.04595">
        <ele>85</ele>
        <time>2023-11-04T22:21:37Z</time>
      </trkpt>
      <trkpt lat="47.48496" lon="-0.04546">
        <ele>88</ele>
        <time>2023-11-04T22:22:27Z</time>
      </trkpt>
      <trkpt lat="47.48508" lon="-0.04524">
        <ele>89</ele>
        <time>2023-11-04T22:22:53Z</time>
      </trkpt>
      <trkpt lat="47.48522" lon="-0.04506">
        <ele>89</ele>
        <time>2023-11-04T22:23:18Z</time>
      </trkpt>
      <trkpt lat="47.48531" lon="-0.04482">
        <ele>88</ele>
        <time>2023-11-04T22:23:42Z</time>
      </trkpt>
      <trkpt lat="47.48543" lon="-0.04461">
        <ele>88</ele>
        <time>2023-11-04T22:24:07Z</time>
      </trkpt>
      <trkpt lat="47.4856" lon="-0.04411">
        <ele>88</ele>
        <time>2023-11-04T22:24:58Z</time>
      </trkpt>
      <trkpt lat="47.48586" lon="-0.0437">
        <ele>88</ele>
        <time>2023-11-04T22:25:48Z</time>
      </trkpt>
      <trkpt lat="47.48597" lon="-0.04347">
        <ele>88</ele>
        <time>2023-11-04T22:26:14Z</time>
      </trkpt>
      <trkpt lat="47.48652" lon="-0.04274">
        <ele>88</ele>
        <time>2023-11-04T22:27:52Z</time>
      </trkpt>
      <trkpt lat="47.48668" lon="-0.04258">
        <ele>89</ele>
        <time>2023-11-04T22:28:18Z</time>
      </trkpt>
      <trkpt lat="47.48703" lon="-0.0424">
        <ele>88</ele>
        <time>2023-11-04T22:29:08Z</time>
      </trkpt>
      <trkpt lat="47.48721" lon="-0.04228">
        <ele>88</ele>
        <time>2023-11-04T22:29:34Z</time>
      </trkpt>
      <trkpt lat="47.48755" lon="-0.04212">
        <ele>86</ele>
        <time>2023-11-04T22:30:21Z</time>
      </trkpt>
      <trkpt lat="47.48806" lon="-0.04176">
        <ele>84</ele>
        <time>2023-11-04T22:31:37Z</time>
      </trkpt>
      <trkpt lat="47.48838" lon="-0.04145">
        <ele>83</ele>
        <time>2023-11-04T22:32:28Z</time>
      </trkpt>
      <trkpt lat="47.48893" lon="-0.04159">
        <ele>79</ele>
        <time>2023-11-04T22:33:42Z</time>
      </trkpt>
      <trkpt lat="47.4893" lon="-0.04162">
        <ele>76</ele>
        <time>2023-11-04T22:34:32Z</time>
      </trkpt>
      <trkpt lat="47.48948" lon="-0.04166">
        <ele>74</ele>
        <time>2023-11-04T22:34:56Z</time>
      </trkpt>
      <trkpt lat="47.4898" lon="-0.04195">
        <ele>70</ele>
        <time>2023-11-04T22:35:46Z</time>
      </trkpt>
      <trkpt lat="47.48997" lon="-0.04205">
        <ele>69</ele>
        <time>2023-11-04T22:36:11Z</time>
      </trkpt>
      <trkpt lat="47.49062" lon="-0.04259">
        <ele>67</ele>
        <time>2023-11-04T22:37:50Z</time>
      </trkpt>
      <trkpt lat="47.49188" lon="-0.04372">
        <ele>67</ele>
        <time>2023-11-04T22:41:07Z</time>
      </trkpt>
      <trkpt lat="47.49252" lon="-0.04471">
        <ele>66</ele>
        <time>2023-11-04T22:43:10Z</time>
      </trkpt>
      <trkpt lat="47.49268" lon="-0.04487">
        <ele>66</ele>
        <time>2023-11-04T22:43:36Z</time>
      </trkpt>
      <trkpt lat="47.49296" lon="-0.04524">
        <ele>65</ele>
        <time>2023-11-04T22:44:26Z</time>
      </trkpt>
      <trkpt lat="47.49344" lon="-0.04568">
        <ele>63</ele>
        <time>2023-11-04T22:45:41Z</time>
      </trkpt>
      <trkpt lat="47.49362" lon="-0.0457">
        <ele>63</ele>
        <time>2023-11-04T22:46:06Z</time>
      </trkpt>
    </trkseg>
  </trk>
</gpx>